WetterOnline ( https://www.wetteronline.de )

Wetter aktuell Roermond

Aktuelles Wetter: Geilenkirchen (90m)

6-stündlich | Neueste Meldungen
Ortszeit Temperatur Wetter
Mi, 26.01. 7:00 1.8° C bedeckt
Mi, 26.01. 1:00 2.3° C bedeckt
Di, 25.01. 19:00 2.6° C bedeckt
Di, 25.01. 13:00 2.7° C bedeckt
Di, 25.01. 7:00 1.6° C bedeckt
Di, 25.01. 1:00 -2.2° C wolkenlos
Mo, 24.01. 19:00 -0.4° C wolkenlos
Mo, 24.01. 13:00 6.5° C fast wolkenlos
Ortszeit Temperatur Wetter
Mi, 26.01. 10:00 1.8° C bedeckt
Mi, 26.01. 9:00 1.7° C bedeckt
Mi, 26.01. 8:00 1.9° C bedeckt
Mi, 26.01. 7:00 1.8° C bedeckt
Mi, 26.01. 6:00 1.7° C bedeckt
Mi, 26.01. 5:00 1.9° C bedeckt
Mi, 26.01. 4:00 2.2° C bedeckt
Ortszeit Relative Feuchte Sichtweite
Mi, 26.01. 7:00 87% 5.0 km
Mi, 26.01. 1:00 90% 5.0 km
Di, 25.01. 19:00 90% 8 km
Di, 25.01. 13:00 94% 4.0 km
Di, 25.01. 7:00 95% 4.0 km
Di, 25.01. 1:00 100% 6 km
Mo, 24.01. 19:00 94% 20 km
Mo, 24.01. 13:00 68% 12 km
Ortszeit Relative Feuchte Sichtweite
Mi, 26.01. 10:00 90% 4.1 km
Mi, 26.01. 9:00 87% 4.2 km
Mi, 26.01. 8:00 87% 5.0 km
Mi, 26.01. 7:00 87% 5.0 km
Mi, 26.01. 6:00 88% 5.0 km
Mi, 26.01. 5:00 88% 4.5 km
Mi, 26.01. 4:00 89% 4.5 km
Ortszeit Niederschlagsmenge Niederschlagsart
Mi, 26.01. 7:00 0.0 l/m2 in 12 Std. -
Mi, 26.01. 1:00 keine Meldung -
Di, 25.01. 19:00 0.0 l/m2 in 12 Std. -
Di, 25.01. 13:00 keine Meldung -
Di, 25.01. 7:00 0.0 l/m2 in 12 Std. -
Di, 25.01. 1:00 keine Meldung -
Mo, 24.01. 19:00 0.0 l/m2 in 12 Std. -
Mo, 24.01. 13:00 keine Meldung -
Ortszeit Niederschlagsmenge Niederschlagsart
Mi, 26.01. 10:00 keine Meldung -
Mi, 26.01. 9:00 keine Meldung -
Mi, 26.01. 8:00 keine Meldung -
Mi, 26.01. 7:00 keine Meldung -
Mi, 26.01. 6:00 keine Meldung -
Mi, 26.01. 5:00 keine Meldung -
Mi, 26.01. 4:00 keine Meldung -
Ortszeit Stärke Spitze Richtung
km/h Bft. km/h Grad Sektor
Mi, 26.01. 7:00 7 2 - 260° W
Mi, 26.01. 1:00 7 2 - 290° W
Di, 25.01. 19:00 4 1 - 30° NO
Di, 25.01. 13:00 7 2 - 80° O
Di, 25.01. 7:00 4 1 - 140° SO
Di, 25.01. 1:00 4 1 - 70° O
Mo, 24.01. 19:00 11 2 - 70° O
Mo, 24.01. 13:00 7 2 - 90° O
Ortszeit Stärke Spitze Richtung
km/h Bft. km/h Grad Sektor
Mi, 26.01. 10:00 14 3 - 200° S
Mi, 26.01. 9:00 11 2 - 180° S
Mi, 26.01. 8:00 7 2 - 190° S
Mi, 26.01. 7:00 7 2 - 260° W
Mi, 26.01. 6:00 14 3 - 270° W
Mi, 26.01. 5:00 7 2 - 240° SW
Mi, 26.01. 4:00 11 2 - 270° W
Ortszeit Untergrenze Bedeckung Gattung
total tief tief mittel hoch
Mi, 26.01. 7:00 330 m 8/8 8/8 St - -
Mi, 26.01. 1:00 330 m 8/8 8/8 St - -
Di, 25.01. 19:00 300 m 8/8 7/8 St - -
Di, 25.01. 13:00 150 m 8/8 8/8 St - -
Di, 25.01. 7:00 150 m 8/8 8/8 St - -
Di, 25.01. 1:00 - 0/8 0/8 - - -
Mo, 24.01. 19:00 - 0/8 0/8 - - -
Mo, 24.01. 13:00 450 m 1/8 1/8 Cu - -
Ortszeit Bedeckungsgrad in Achtel und Wolkenuntergrenze
Mi, 26.01. 10:00 8(450m)
Mi, 26.01. 9:00 8(450m)
Mi, 26.01. 8:00 8(450m)
Mi, 26.01. 7:00 8(330m)
Mi, 26.01. 6:00 8(300m)
Mi, 26.01. 5:00 8(300m)
Mi, 26.01. 4:00 8(330m)
Ortszeit Luftdruck NN (hPa) Tendenz (hPa in 3 Std.)
Mi, 26.01. 7:00 1033 - 0,3
Mi, 26.01. 1:00 1034 + 0,2
Di, 25.01. 19:00 1034 0,0
Di, 25.01. 13:00 1034 + 0,2
Di, 25.01. 7:00 1034 - 0,2
Di, 25.01. 1:00 1034 0,0
Mo, 24.01. 19:00 1034 + 0,2
Mo, 24.01. 13:00 1034 - 0,6
Ortszeit Luftdruck NN (hPa) Tendenz (hPa in 3 Std.)
Mi, 26.01. 10:00 1034 + 0,5
Mi, 26.01. 9:00 1033 + 0,1
Mi, 26.01. 8:00 1033 + 0,2
Mi, 26.01. 7:00 1033 - 0,3
Mi, 26.01. 6:00 1033 - 0,7
Mi, 26.01. 5:00 1033 - 1,0
Mi, 26.01. 4:00 1033 - 0,4
Ortszeit Schneehöhe (cm)
Mi, 26.01. 7:00 0
Mi, 26.01. 1:00 -
Di, 25.01. 19:00 0
Di, 25.01. 13:00 -
Di, 25.01. 7:00 0
Di, 25.01. 1:00 -
Mo, 24.01. 19:00 0
Mo, 24.01. 13:00 -
Ortszeit Schneehöhe (cm)
Mi, 26.01. 10:00 -
Mi, 26.01. 9:00 -
Mi, 26.01. 8:00 -
Mi, 26.01. 7:00 0
Mi, 26.01. 6:00 -
Mi, 26.01. 5:00 -
Mi, 26.01. 4:00 -
Link zu dieser Seite / Seite empfehlen

Das Wetter in ...